createdAt,value
2018-05-31T00:02:04.164Z,97802.25
2018-05-31T00:04:31.263Z,97798.97
2018-05-31T00:06:58.320Z,97795.39
2018-05-31T00:09:25.813Z,97789.48
2018-05-31T00:11:52.827Z,97782.70
2018-05-31T00:14:20.102Z,97780.33
2018-05-31T00:16:47.149Z,97783.25
2018-05-31T00:19:14.224Z,97787.86
2018-05-31T00:21:41.373Z,97784.66
2018-05-31T00:24:08.532Z,97782.06
2018-05-31T00:26:35.788Z,97789.48
2018-05-31T00:29:02.812Z,97789.66
2018-05-31T00:31:30.358Z,97793.13
2018-05-31T00:33:57.722Z,97790.98
2018-05-31T00:36:24.741Z,97795.20
2018-05-31T00:38:51.861Z,97798.97
2018-05-31T00:41:19.092Z,97803.28
2018-05-31T00:43:46.238Z,97807.81
2018-05-31T00:46:13.228Z,97800.10
2018-05-31T00:48:40.375Z,97803.57
2018-05-31T00:51:07.418Z,97807.94
2018-05-31T00:53:34.440Z,97819.15
2018-05-31T00:56:07.379Z,97826.36
2018-05-31T00:58:34.408Z,97829.45
2018-05-31T01:01:01.624Z,97827.49
2018-05-31T01:03:28.620Z,97822.69
2018-05-31T01:05:55.639Z,97828.30
2018-05-31T01:08:23.027Z,97825.12
2018-05-31T01:10:50.732Z,97823.00
2018-05-31T01:13:17.842Z,97819.86
2018-05-31T01:15:44.882Z,97816.46
2018-05-31T01:18:12.568Z,97813.81
2018-05-31T01:20:39.603Z,97809.67
2018-05-31T01:23:06.645Z,97808.82
2018-05-31T01:25:33.657Z,97802.83
2018-05-31T01:28:00.659Z,97806.23
2018-05-31T01:30:27.652Z,97813.67
2018-05-31T01:32:54.672Z,97827.06
2018-05-31T01:35:22.237Z,97823.96
2018-05-31T01:37:49.237Z,97819.18
2018-05-31T01:40:17.039Z,97821.87
2018-05-31T01:42:44.087Z,97816.45
2018-05-31T01:45:11.110Z,97819.72
2018-05-31T01:47:38.117Z,97822.53
2018-05-31T01:50:05.140Z,97819.64
2018-05-31T01:52:32.325Z,97823.42
2018-05-31T01:54:59.393Z,97826.27
2018-05-31T01:57:26.417Z,97822.41
2018-05-31T01:59:53.464Z,97819.84
2018-05-31T02:02:20.503Z,97818.98
2018-05-31T02:04:47.638Z,97816.98
2018-05-31T02:07:14.788Z,97824.25
2018-05-31T02:09:41.812Z,97822.16
2018-05-31T02:12:08.833Z,97828.59
2018-05-31T02:14:35.850Z,97818.41
2018-05-31T02:17:02.987Z,97823.00
2018-05-31T02:19:30.223Z,97814.92
2018-05-31T02:21:57.240Z,97809.37
2018-05-31T02:24:24.264Z,97815.63
2018-05-31T02:26:51.255Z,97826.70
2018-05-31T02:29:18.296Z,97836.70
2018-05-31T02:31:45.319Z,97828.23
2018-05-31T02:34:12.364Z,97835.44
2018-05-31T02:36:39.358Z,97825.92
2018-05-31T02:39:06.483Z,97816.43
2018-05-31T02:41:33.690Z,97819.98
2018-05-31T02:44:00.939Z,97820.02
2018-05-31T02:46:27.939Z,97813.09
2018-05-31T02:48:54.940Z,97814.17
2018-05-31T02:51:21.947Z,97818.48
2018-05-31T02:53:48.944Z,97825.73
2018-05-31T02:56:16.149Z,97821.80
2018-05-31T02:58:43.229Z,97821.39
2018-05-31T03:01:10.254Z,97823.11
2018-05-31T03:03:37.242Z,97826.97
2018-05-31T03:06:04.268Z,97824.30
2018-05-31T03:08:31.332Z,97828.30
2018-05-31T03:10:58.363Z,97829.20
2018-05-31T03:13:25.395Z,97827.70
2018-05-31T03:15:52.568Z,97830.23
2018-05-31T03:18:19.583Z,97828.92
2018-05-31T03:20:46.607Z,97825.73
2018-05-31T03:23:13.650Z,97826.76
2018-05-31T03:25:40.695Z,97826.76
2018-05-31T03:28:07.684Z,97830.95
2018-05-31T03:30:34.984Z,97825.95
2018-05-31T03:33:02.109Z,97830.77
2018-05-31T03:35:29.145Z,97829.97
2018-05-31T03:37:56.180Z,97824.91
2018-05-31T03:40:23.282Z,97828.28
2018-05-31T03:42:50.320Z,97831.22
2018-05-31T03:45:18.225Z,97821.33
2018-05-31T03:47:45.235Z,97826.52
2018-05-31T03:50:12.408Z,97825.37
2018-05-31T03:52:39.532Z,97831.81
2018-05-31T03:55:06.555Z,97830.71
2018-05-31T03:57:33.559Z,97832.21
2018-05-31T04:00:00.718Z,97821.19
2018-05-31T04:02:27.703Z,97820.31
2018-05-31T04:04:54.709Z,97816.45
2018-05-31T04:07:21.741Z,97812.55
2018-05-31T04:09:48.740Z,97818.66
2018-05-31T04:12:15.848Z,97814.91
2018-05-31T04:14:42.910Z,97820.08
2018-05-31T04:17:10.147Z,97817.25
2018-05-31T04:19:37.197Z,97829.91
2018-05-31T04:22:04.228Z,97831.82
2018-05-31T04:24:31.264Z,97830.55
2018-05-31T04:26:58.264Z,97825.80
2018-05-31T04:29:25.270Z,97826.73
2018-05-31T04:31:52.301Z,97834.41
2018-05-31T04:34:19.358Z,97831.32
2018-05-31T04:36:46.361Z,97837.75
2018-05-31T04:39:13.394Z,97831.01
2018-05-31T04:41:40.397Z,97838.41
2018-05-31T04:44:07.615Z,97837.17
2018-05-31T04:46:34.625Z,97840.09
2018-05-31T04:49:01.628Z,97834.63
2018-05-31T04:51:28.624Z,97833.81
2018-05-31T04:53:55.683Z,97846.75
2018-05-31T04:56:22.892Z,97846.22
2018-05-31T04:58:49.928Z,97842.98
2018-05-31T05:01:17.676Z,97841.81
2018-05-31T05:03:44.804Z,97837.39
2018-05-31T05:06:11.838Z,97840.81
2018-05-31T05:08:38.963Z,97849.91
2018-05-31T05:11:06.010Z,97839.55
2018-05-31T05:13:33.015Z,97842.72
2018-05-31T05:16:00.038Z,97840.95
2018-05-31T05:18:27.058Z,97844.68
2018-05-31T05:20:54.086Z,97847.68
2018-05-31T05:23:21.080Z,97850.08
2018-05-31T05:25:48.441Z,97850.44
2018-05-31T05:28:15.493Z,97853.99
2018-05-31T05:30:42.698Z,97861.63
2018-05-31T05:33:09.775Z,97859.17
2018-05-31T05:35:36.735Z,97855.69
2018-05-31T05:38:03.758Z,97856.08
2018-05-31T05:40:30.888Z,97861.49
2018-05-31T05:42:58.105Z,97862.92
2018-05-31T05:45:25.174Z,97861.34
2018-05-31T05:47:52.194Z,97870.22
2018-05-31T05:50:19.201Z,97882.19
2018-05-31T05:52:46.238Z,97882.16
2018-05-31T05:55:13.243Z,97877.18
2018-05-31T05:57:40.259Z,97884.20
2018-05-31T06:00:07.311Z,97885.47
2018-05-31T06:02:34.331Z,97882.39
2018-05-31T06:05:01.384Z,97882.37
2018-05-31T06:07:28.404Z,97889.62
2018-05-31T06:09:55.445Z,97883.22
2018-05-31T06:12:22.625Z,97885.66
2018-05-31T06:14:49.651Z,97894.06
2018-05-31T06:17:16.679Z,97892.63
2018-05-31T06:19:43.692Z,97892.77
2018-05-31T06:22:10.690Z,97896.11
2018-05-31T06:24:37.759Z,97898.13
2018-05-31T06:27:04.726Z,97898.41
2018-05-31T06:29:31.767Z,97899.68
2018-05-31T06:31:58.773Z,97907.64
2018-05-31T06:34:25.950Z,97911.79
2018-05-31T06:36:53.285Z,97916.02
2018-05-31T06:39:20.330Z,97910.08
2018-05-31T06:41:47.380Z,97916.97
2018-05-31T06:44:14.358Z,97914.86
2018-05-31T06:46:41.371Z,97911.56
2018-05-31T06:49:08.834Z,97915.95
2018-05-31T06:51:36.310Z,97913.34
2018-05-31T06:54:03.335Z,97918.33
2018-05-31T06:56:30.356Z,97917.50
2018-05-31T06:58:57.336Z,97920.04
2018-05-31T07:01:24.371Z,97921.85
2018-05-31T07:03:51.384Z,97914.75
2018-05-31T07:06:18.991Z,97913.09
2018-05-31T07:08:46.044Z,97912.03
2018-05-31T07:11:13.115Z,97915.02
2018-05-31T07:13:40.362Z,97907.59
2018-05-31T07:16:07.351Z,97920.30
2018-05-31T07:18:34.490Z,97924.20
2018-05-31T07:21:01.500Z,97921.61
2018-05-31T07:23:28.527Z,97920.66
2018-05-31T07:25:56.085Z,97911.73
2018-05-31T07:28:23.083Z,97916.41
2018-05-31T07:30:50.176Z,97917.83
2018-05-31T07:33:17.212Z,97915.38
2018-05-31T07:35:44.221Z,97918.78
2018-05-31T07:38:11.226Z,97914.21
2018-05-31T07:40:38.241Z,97919.23
2018-05-31T07:43:05.310Z,97916.97
2018-05-31T07:45:32.336Z,97910.74
2018-05-31T07:47:59.491Z,97919.28
2018-05-31T07:50:26.571Z,97921.34
2018-05-31T07:52:54.131Z,97924.38
2018-05-31T07:55:22.107Z,97931.75
2018-05-31T07:57:49.600Z,97934.75
2018-05-31T08:00:18.866Z,97937.54
2018-05-31T08:02:47.923Z,97928.81
2018-05-31T08:05:15.406Z,97938.47
2018-05-31T08:07:42.945Z,97931.92
2018-05-31T08:10:10.917Z,97941.81
2018-05-31T08:12:41.588Z,97936.60
2018-05-31T08:15:09.461Z,97934.73
2018-05-31T08:17:37.685Z,97931.12
2018-05-31T08:20:05.338Z,97936.48
2018-05-31T08:22:32.422Z,97932.75
2018-05-31T08:24:59.425Z,97940.04
2018-05-31T08:27:26.426Z,97931.81
2018-05-31T08:29:53.543Z,97932.67
2018-05-31T08:32:20.702Z,97926.81
2018-05-31T08:34:47.717Z,97924.02
2018-05-31T08:37:15.286Z,97928.22
2018-05-31T08:39:42.757Z,97919.30
2018-05-31T08:42:10.233Z,97920.91
2018-05-31T08:44:38.442Z,97923.18
2018-05-31T08:47:05.907Z,97922.38
2018-05-31T08:49:33.502Z,97931.48
2018-05-31T08:52:01.127Z,97937.31
2018-05-31T08:54:28.626Z,97937.79
2018-05-31T08:56:56.176Z,97940.08
2018-05-31T08:59:23.861Z,97939.36
2018-05-31T09:01:51.322Z,97937.56
2018-05-31T09:04:18.805Z,97926.49
2018-05-31T09:06:46.293Z,97934.86
2018-05-31T09:09:13.771Z,97932.27
2018-05-31T09:11:41.242Z,97927.66
2018-05-31T09:14:08.708Z,97926.94
2018-05-31T09:16:36.163Z,97925.50
2018-05-31T09:19:03.668Z,97926.67
2018-05-31T09:21:31.369Z,97927.31
2018-05-31T09:23:58.839Z,97933.39
2018-05-31T09:26:26.387Z,97924.79
2018-05-31T09:28:53.886Z,97930.78
2018-05-31T09:31:21.377Z,97925.55
2018-05-31T09:33:48.941Z,97922.05
2018-05-31T09:36:16.607Z,97925.30
2018-05-31T09:38:44.169Z,97917.84
2018-05-31T09:41:11.657Z,97922.06
2018-05-31T09:43:40.567Z,97915.28
2018-05-31T09:46:08.139Z,97917.92
2018-05-31T09:48:35.611Z,97924.68
2018-05-31T09:51:05.589Z,97934.02
2018-05-31T09:53:33.370Z,97919.52
2018-05-31T09:56:00.839Z,97921.87
2018-05-31T09:58:28.551Z,97923.38
2018-05-31T10:00:56.021Z,97920.90
2018-05-31T10:03:23.517Z,97914.39
2018-05-31T10:05:51.078Z,97926.00
2018-05-31T10:08:18.573Z,97922.56
2018-05-31T10:10:46.311Z,97920.48
2018-05-31T10:13:14.631Z,97909.02
2018-05-31T10:15:42.109Z,97907.25
2018-05-31T10:18:09.581Z,97905.33
2018-05-31T10:20:37.336Z,97906.68
2018-05-31T10:23:04.896Z,97899.63
2018-05-31T10:25:32.362Z,97901.44
2018-05-31T10:27:59.858Z,97899.42
2018-05-31T10:30:27.547Z,97891.17
2018-05-31T10:32:55.148Z,97892.92
2018-05-31T10:35:22.595Z,97882.73
2018-05-31T10:37:50.148Z,97883.18
2018-05-31T10:40:17.813Z,97884.89
2018-05-31T10:42:45.250Z,97883.69
2018-05-31T10:45:12.757Z,97889.15
2018-05-31T10:47:40.228Z,97877.84
2018-05-31T10:50:07.704Z,97874.66
2018-05-31T10:52:35.202Z,97869.78
2018-05-31T10:55:03.273Z,97867.73
2018-05-31T10:57:30.772Z,97869.05
2018-05-31T10:59:58.240Z,97868.02
2018-05-31T11:02:25.767Z,97866.52
2018-05-31T11:04:53.432Z,97863.88
2018-05-31T11:07:21.003Z,97856.45
2018-05-31T11:09:48.482Z,97851.98
2018-05-31T11:12:15.953Z,97857.04
2018-05-31T11:14:43.508Z,97856.69
2018-05-31T11:17:10.968Z,97858.47
2018-05-31T11:19:38.433Z,97858.86
2018-05-31T11:22:06.082Z,97860.76
2018-05-31T11:24:33.564Z,97857.17
2018-05-31T11:27:01.013Z,97863.62
2018-05-31T11:29:28.591Z,97855.59
2018-05-31T11:31:56.052Z,97851.67
2018-05-31T11:34:23.646Z,97851.77
2018-05-31T11:36:51.083Z,97843.95
2018-05-31T11:39:18.567Z,97839.88
2018-05-31T11:41:46.038Z,97833.33
2018-05-31T11:44:13.509Z,97831.57
2018-05-31T11:46:40.959Z,97829.28
2018-05-31T11:49:08.463Z,97824.62
2018-05-31T11:51:35.928Z,97827.28
2018-05-31T11:54:03.566Z,97823.17
2018-05-31T11:56:31.012Z,97818.48
2018-05-31T11:58:58.537Z,97817.11
2018-05-31T12:01:26.029Z,97814.37
2018-05-31T12:03:53.535Z,97807.85
2018-05-31T12:06:21.002Z,97802.28
2018-05-31T12:08:48.482Z,97808.30
2018-05-31T12:11:16.044Z,97804.42
2018-05-31T12:13:43.496Z,97807.30
2018-05-31T12:16:11.119Z,97805.05
2018-05-31T12:18:38.605Z,97811.91
2018-05-31T12:21:06.087Z,97803.69
2018-05-31T12:23:34.609Z,97795.56
2018-05-31T12:26:02.145Z,97797.93
2018-05-31T12:28:30.122Z,97792.13
2018-05-31T12:30:57.617Z,97787.91
2018-05-31T12:33:25.109Z,97781.65
2018-05-31T12:35:52.581Z,97783.79
2018-05-31T12:38:20.173Z,97790.82
2018-05-31T12:40:47.664Z,97795.73
2018-05-31T12:43:15.352Z,97784.53
2018-05-31T12:45:42.803Z,97774.48
2018-05-31T12:48:10.441Z,97777.23
2018-05-31T12:50:37.930Z,97779.55
2018-05-31T12:53:05.524Z,97774.01
2018-05-31T12:55:32.988Z,97775.30
2018-05-31T12:58:00.522Z,97767.31
2018-05-31T13:00:27.984Z,97763.86
2018-05-31T13:02:55.444Z,97765.83
2018-05-31T13:05:22.944Z,97762.30
2018-05-31T13:07:50.398Z,97751.07
2018-05-31T13:10:17.868Z,97751.67
2018-05-31T13:12:46.057Z,97752.69
2018-05-31T13:15:13.519Z,97757.41
2018-05-31T13:17:40.973Z,97752.74
2018-05-31T13:20:08.444Z,97756.38
2018-05-31T13:22:36.164Z,97752.14
2018-05-31T13:25:03.708Z,97751.59
2018-05-31T13:27:31.243Z,97747.86
2018-05-31T13:29:58.721Z,97732.33
2018-05-31T13:32:26.178Z,97736.98
2018-05-31T13:34:53.659Z,97731.84
2018-05-31T13:37:21.152Z,97731.61
2018-05-31T13:39:48.721Z,97730.62
2018-05-31T13:42:16.259Z,97727.24
2018-05-31T13:44:43.706Z,97745.05
2018-05-31T13:47:11.183Z,97740.14
2018-05-31T13:49:38.684Z,97734.66
2018-05-31T13:52:06.159Z,97733.51
2018-05-31T13:54:33.622Z,97738.40
2018-05-31T13:57:01.090Z,97726.19
2018-05-31T13:59:28.566Z,97746.48
2018-05-31T14:01:56.102Z,97749.39
2018-05-31T14:04:23.398Z,97748.44
2018-05-31T14:06:50.910Z,97755.44
2018-05-31T14:09:18.042Z,97753.69
2018-05-31T14:11:45.060Z,97755.93
2018-05-31T14:14:12.104Z,97756.08
2018-05-31T14:16:39.119Z,97758.09
2018-05-31T14:19:06.121Z,97762.36
2018-05-31T14:21:33.225Z,97768.00
2018-05-31T14:24:00.245Z,97771.52
2018-05-31T14:26:27.248Z,97777.95
2018-05-31T14:28:54.244Z,97768.76
2018-05-31T14:31:21.753Z,97767.77
2018-05-31T14:33:48.768Z,97777.80
2018-05-31T14:36:15.773Z,97773.97
2018-05-31T14:38:42.830Z,97775.20
2018-05-31T14:41:09.848Z,97775.34
2018-05-31T14:43:36.854Z,97776.91
2018-05-31T14:46:03.956Z,97763.73
2018-05-31T14:48:30.958Z,97757.86
2018-05-31T14:50:58.658Z,97754.86
2018-05-31T14:53:25.714Z,97745.33
2018-05-31T14:55:53.182Z,97740.77
2018-05-31T14:58:20.673Z,97738.39
2018-05-31T15:00:48.147Z,97739.27
2018-05-31T15:03:15.751Z,97741.79
2018-05-31T15:05:43.206Z,97740.46
2018-05-31T15:08:10.745Z,97741.50
2018-05-31T15:10:38.438Z,97743.83
2018-05-31T15:13:05.925Z,97746.67
2018-05-31T15:15:33.563Z,97748.44
2018-05-31T15:18:01.039Z,97741.07
2018-05-31T15:20:28.665Z,97733.59
2018-05-31T15:22:56.203Z,97733.38
2018-05-31T15:25:24.144Z,97727.55
2018-05-31T15:27:51.617Z,97722.85
2018-05-31T15:30:19.221Z,97723.05
2018-05-31T15:32:46.716Z,97720.03
2018-05-31T15:35:14.192Z,97715.48
2018-05-31T15:37:41.699Z,97723.51
2018-05-31T15:40:10.116Z,97715.50
2018-05-31T15:42:37.729Z,97725.56
2018-05-31T15:45:05.389Z,97719.87
2018-05-31T15:47:32.940Z,97719.81
2018-05-31T15:50:00.403Z,97724.95
2018-05-31T15:52:27.874Z,97731.64
2018-05-31T15:54:55.330Z,97732.75
2018-05-31T15:57:22.840Z,97744.05
2018-05-31T15:59:50.294Z,97740.48
2018-05-31T16:02:17.751Z,97748.23
2018-05-31T16:04:45.435Z,97739.98
2018-05-31T16:07:12.929Z,97752.61
2018-05-31T16:09:40.385Z,97747.91
2018-05-31T16:12:07.843Z,97752.98
2018-05-31T16:14:35.421Z,97749.34
2018-05-31T16:17:02.893Z,97746.47
2018-05-31T16:19:30.385Z,97749.72
2018-05-31T16:21:57.865Z,97750.46
2018-05-31T16:24:25.344Z,97754.13
2018-05-31T16:26:52.817Z,97757.44
2018-05-31T16:29:20.394Z,97759.99
2018-05-31T16:31:47.866Z,97751.65
2018-05-31T16:34:15.448Z,97758.66
2018-05-31T16:36:43.075Z,97758.59
2018-05-31T16:39:10.555Z,97759.18
2018-05-31T16:41:38.019Z,97751.13
2018-05-31T16:44:05.504Z,97746.47
2018-05-31T16:46:32.984Z,97741.38
2018-05-31T16:49:00.610Z,97738.59
2018-05-31T16:51:28.059Z,97733.74
2018-05-31T16:53:55.533Z,97720.54
2018-05-31T16:56:23.026Z,97713.77
2018-05-31T16:58:50.708Z,97703.31
2018-05-31T17:01:18.169Z,97693.06
2018-05-31T17:03:45.685Z,97698.60
2018-05-31T17:06:13.169Z,97690.59
2018-05-31T17:08:40.630Z,97686.47
2018-05-31T17:11:08.094Z,97691.02
2018-05-31T17:13:35.603Z,97698.10
2018-05-31T17:16:04.295Z,97698.18
2018-05-31T17:18:31.811Z,97704.50
2018-05-31T17:20:59.896Z,97710.42
2018-05-31T17:23:27.418Z,97706.04
2018-05-31T17:25:54.950Z,97709.31
2018-05-31T17:28:22.664Z,97727.77
2018-05-31T17:30:50.205Z,97745.30
2018-05-31T17:33:17.760Z,97746.56
2018-05-31T17:35:45.220Z,97756.75
2018-05-31T17:38:12.869Z,97762.77
2018-05-31T17:40:40.511Z,97773.91
2018-05-31T17:43:07.990Z,97768.77
2018-05-31T17:45:35.606Z,97756.00
2018-05-31T17:48:03.165Z,97744.79
2018-05-31T17:50:30.655Z,97744.05
2018-05-31T17:52:58.285Z,97743.09
2018-05-31T17:55:25.758Z,97737.81
2018-05-31T17:57:53.398Z,97731.11
2018-05-31T18:13:58.791Z,97763.62
2018-05-31T18:16:26.258Z,97776.22
2018-05-31T18:18:53.841Z,97779.17
2018-05-31T18:21:21.304Z,97781.75
2018-05-31T18:23:48.779Z,97782.34
2018-05-31T18:26:16.252Z,97788.83
2018-05-31T18:28:43.710Z,97778.98
2018-05-31T18:31:11.196Z,97778.17
2018-05-31T18:33:38.704Z,97774.42
2018-05-31T18:36:06.135Z,97780.70
2018-05-31T18:38:33.590Z,97783.25
2018-05-31T18:41:01.078Z,97790.73
2018-05-31T18:43:28.875Z,97785.22
2018-05-31T18:45:56.367Z,97773.59
2018-05-31T18:48:24.225Z,97768.86
2018-05-31T18:50:51.800Z,97768.60
2018-05-31T18:53:18.866Z,97774.06
2018-05-31T18:55:45.901Z,97780.89
2018-05-31T18:58:12.951Z,97783.25
2018-05-31T19:00:40.144Z,97795.45
2018-05-31T19:03:07.827Z,97797.63
2018-05-31T19:05:34.831Z,97792.28
2018-05-31T19:08:01.969Z,97784.01
2018-05-31T19:10:29.001Z,97782.84
2018-05-31T19:13:01.697Z,97774.75
2018-05-31T19:15:35.644Z,97777.42
2018-05-31T19:18:02.687Z,97774.04
2018-05-31T19:20:29.717Z,97764.92
2018-05-31T19:22:56.727Z,97769.81
2018-05-31T19:25:23.732Z,97775.27
2018-05-31T19:27:50.800Z,97776.41
2018-05-31T19:30:24.441Z,97785.43
2018-05-31T19:32:51.466Z,97784.17
2018-05-31T19:35:24.259Z,97789.45
2018-05-31T19:37:51.286Z,97788.63
2018-05-31T19:40:18.336Z,97790.19
2018-05-31T19:42:51.037Z,97796.84
2018-05-31T19:45:18.032Z,97799.64
2018-05-31T19:47:45.490Z,97794.73
2018-05-31T19:50:12.543Z,97786.28
2018-05-31T19:52:45.660Z,97784.73
2018-05-31T19:55:13.129Z,97778.41
2018-05-31T19:57:46.527Z,97781.92
2018-05-31T20:00:19.795Z,97793.32
2018-05-31T20:05:51.625Z,97803.01
2018-05-31T20:08:18.655Z,97806.93
2018-05-31T20:10:46.250Z,97816.18
2018-05-31T20:13:13.863Z,97818.55
2018-05-31T20:15:41.536Z,97818.77
2018-05-31T20:18:09.025Z,97825.49
2018-05-31T20:20:36.510Z,97823.91
2018-05-31T20:23:03.972Z,97825.28
2018-05-31T20:25:31.580Z,97826.25
2018-05-31T20:27:59.060Z,97823.45
2018-05-31T20:30:26.207Z,97830.70
2018-05-31T20:32:53.245Z,97825.17
2018-05-31T20:35:20.295Z,97826.16
2018-05-31T20:37:47.348Z,97822.77
2018-05-31T20:40:14.345Z,97815.08
2018-05-31T20:42:41.877Z,97813.00
2018-05-31T20:45:09.582Z,97813.37
2018-05-31T20:47:36.775Z,97816.70
2018-05-31T20:50:04.260Z,97820.65
2018-05-31T20:52:31.751Z,97821.66
2018-05-31T20:54:59.216Z,97817.53
2018-05-31T20:57:26.680Z,97805.72
2018-05-31T20:59:54.178Z,97806.50
2018-05-31T21:02:21.638Z,97805.27
2018-05-31T21:04:49.101Z,97801.22
2018-05-31T21:07:16.894Z,97795.64
2018-05-31T21:09:44.410Z,97785.70
2018-05-31T21:12:11.403Z,97779.88
2018-05-31T21:14:38.432Z,97769.97
2018-05-31T21:17:05.976Z,97773.30
2018-05-31T21:19:32.978Z,97772.48
2018-05-31T21:22:00.036Z,97777.36
2018-05-31T21:24:27.020Z,97790.50
2018-05-31T21:26:54.063Z,97787.53
2018-05-31T21:29:21.099Z,97793.43
2018-05-31T21:31:48.118Z,97782.55
2018-05-31T21:34:15.180Z,97798.91
2018-05-31T21:36:42.236Z,97816.43
2018-05-31T21:39:09.307Z,97836.44
2018-05-31T21:41:36.374Z,97840.17
2018-05-31T21:44:03.400Z,97852.27
2018-05-31T21:46:30.440Z,97866.16
2018-05-31T21:48:57.426Z,97913.58
2018-05-31T21:51:24.422Z,97884.14
2018-05-31T21:53:51.410Z,97939.95
2018-05-31T21:56:18.758Z,97955.97
2018-05-31T21:58:45.755Z,97979.05
2018-05-31T22:01:12.792Z,98002.61
2018-05-31T22:03:39.830Z,98021.79
2018-05-31T22:06:06.851Z,98052.14
2018-05-31T22:08:33.866Z,98078.94
2018-05-31T22:11:01.095Z,98111.84
2018-05-31T22:13:28.191Z,98152.16
2018-05-31T22:15:55.219Z,98147.41
2018-05-31T22:18:22.269Z,98141.72
2018-05-31T22:20:49.291Z,98179.11
2018-05-31T22:23:16.495Z,98169.77
2018-05-31T22:25:43.793Z,98150.70
2018-05-31T22:28:10.831Z,98131.78
2018-05-31T22:30:37.895Z,98122.84
2018-05-31T22:33:04.891Z,98130.75
2018-05-31T22:35:31.963Z,98152.85
2018-05-31T22:37:59.159Z,98161.34
2018-05-31T22:40:26.191Z,98143.45
2018-05-31T22:42:53.213Z,98139.24
2018-05-31T22:45:20.242Z,98134.97
2018-05-31T22:47:47.430Z,98140.48
2018-05-31T22:50:14.441Z,98147.89
2018-05-31T22:52:41.482Z,98164.73
2018-05-31T22:55:08.764Z,98178.55
2018-05-31T22:57:35.796Z,98165.73
2018-05-31T23:00:02.809Z,98150.27
2018-05-31T23:02:29.885Z,98137.56
2018-05-31T23:04:56.910Z,98128.61
2018-05-31T23:07:24.126Z,98114.55
2018-05-31T23:09:51.573Z,98107.20
2018-05-31T23:12:18.639Z,98095.52
2018-05-31T23:14:45.670Z,98097.25
2018-05-31T23:17:12.687Z,98099.73
2018-05-31T23:19:39.696Z,98109.96
2018-05-31T23:22:06.695Z,98128.52
2018-05-31T23:24:33.948Z,98129.64
2018-05-31T23:27:00.980Z,98143.48
2018-05-31T23:29:27.975Z,98145.88
2018-05-31T23:31:54.973Z,98136.36
2018-05-31T23:34:21.977Z,98137.17
2018-05-31T23:36:48.998Z,98136.20
2018-05-31T23:39:15.983Z,98126.70
2018-05-31T23:41:43.042Z,98133.78
2018-05-31T23:44:10.171Z,98141.91
2018-05-31T23:46:37.172Z,98163.02
2018-05-31T23:49:04.210Z,98160.63
2018-05-31T23:51:31.254Z,98170.86
2018-05-31T23:53:58.258Z,98185.30
2018-05-31T23:56:25.360Z,98192.45
2018-05-31T23:58:52.360Z,98197.88
